Lombardy, Mississippi
Current Conditions -  °F | °C
As of 1:55 PM on Thursday 30 Oct 2014 (Local Time) from KRNV Reporting Station
Clear Clear  
Wind Chill: 71°   Ceiling: Unl
Heat Index: 71°   Visibility: 10mi
Dew Point: 46°   Wind: 0mph
Humidity: 41%   Direction: NA
Pressure: 30.09"   Gusts: NA
Location:  33.976°N, 90.7349°W
Report Text: KRNV 301855Z AUTO 00000KT 10SM CLR 21/08 A3009 RMK AO2 T02140077
Loading
Personal Weather Stations






























Interactive Weather Map
Tropical Storm Tracking
New forecast layout! Learn more

10-Day Weather Forecast

Advertisements
Track Severe Weather on mobile